sensor_id;sensor_type;location;lat;lon;timestamp;P1;durP1;ratioP1;P2;durP2;ratioP2
31482;SDS011;18103;52.246;8.052;2023-07-31T00:01:59;7.57;;;2.67;;
31482;SDS011;18103;52.246;8.052;2023-07-31T00:04:24;3.53;;;2.53;;
31482;SDS011;18103;52.246;8.052;2023-07-31T00:06:52;3.80;;;2.43;;
31482;SDS011;18103;52.246;8.052;2023-07-31T00:09:18;3.37;;;2.80;;
31482;SDS011;18103;52.246;8.052;2023-07-31T00:11:45;6.17;;;3.10;;
31482;SDS011;18103;52.246;8.052;2023-07-31T00:14:11;3.30;;;2.33;;
31482;SDS011;18103;52.246;8.052;2023-07-31T00:16:39;5.67;;;2.83;;
31482;SDS011;18103;52.246;8.052;2023-07-31T00:19:04;2.50;;;2.17;;
31482;SDS011;18103;52.246;8.052;2023-07-31T00:21:29;2.40;;;2.20;;
31482;SDS011;18103;52.246;8.052;2023-07-31T00:23:57;4.53;;;2.73;;
31482;SDS011;18103;52.246;8.052;2023-07-31T00:26:22;4.23;;;2.73;;
31482;SDS011;18103;52.246;8.052;2023-07-31T00:28:51;4.63;;;2.50;;
31482;SDS011;18103;52.246;8.052;2023-07-31T00:31:16;3.87;;;2.50;;
31482;SDS011;18103;52.246;8.052;2023-07-31T00:33:41;3.00;;;2.37;;
31482;SDS011;18103;52.246;8.052;2023-07-31T00:36:09;5.83;;;2.23;;
31482;SDS011;18103;52.246;8.052;2023-07-31T00:38:37;2.43;;;2.23;;
31482;SDS011;18103;52.246;8.052;2023-07-31T00:41:02;3.80;;;2.13;;
31482;SDS011;18103;52.246;8.052;2023-07-31T00:43:29;3.17;;;2.27;;
31482;SDS011;18103;52.246;8.052;2023-07-31T00:45:55;3.10;;;2.43;;
31482;SDS011;18103;52.246;8.052;2023-07-31T00:48:20;4.33;;;2.17;;
31482;SDS011;18103;52.246;8.052;2023-07-31T00:50:46;2.60;;;2.13;;
31482;SDS011;18103;52.246;8.052;2023-07-31T00:53:12;3.63;;;2.40;;
31482;SDS011;18103;52.246;8.052;2023-07-31T00:55:40;6.47;;;2.50;;
31482;SDS011;18103;52.246;8.052;2023-07-31T00:58:08;2.50;;;2.30;;
31482;SDS011;18103;52.246;8.052;2023-07-31T01:00:33;1.50;;;1.30;;
31482;SDS011;18103;52.246;8.052;2023-07-31T01:03:01;2.87;;;2.07;;
31482;SDS011;18103;52.246;8.052;2023-07-31T01:05:33;3.93;;;2.30;;
31482;SDS011;18103;52.246;8.052;2023-07-31T01:11:10;2.30;;;1.63;;
31482;SDS011;18103;52.246;8.052;2023-07-31T01:13:40;1.97;;;1.47;;
31482;SDS011;18103;52.246;8.052;2023-07-31T01:16:07;3.10;;;1.60;;
31482;SDS011;18103;52.246;8.052;2023-07-31T01:18:35;2.00;;;1.47;;
31482;SDS011;18103;52.246;8.052;2023-07-31T01:21:03;2.10;;;1.60;;
31482;SDS011;18103;52.246;8.052;2023-07-31T01:26:28;2.73;;;1.40;;
31482;SDS011;18103;52.246;8.052;2023-07-31T01:31:43;3.00;;;1.30;;
31482;SDS011;18103;52.246;8.052;2023-07-31T01:34:15;3.73;;;1.80;;
31482;SDS011;18103;52.246;8.052;2023-07-31T01:36:43;1.60;;;1.30;;
31482;SDS011;18103;52.246;8.052;2023-07-31T01:39:09;1.50;;;1.27;;
31482;SDS011;18103;52.246;8.052;2023-07-31T01:41:34;2.17;;;1.30;;
31482;SDS011;18103;52.246;8.052;2023-07-31T01:44:02;3.73;;;1.43;;
31482;SDS011;18103;52.246;8.052;2023-07-31T01:46:29;2.23;;;1.30;;
31482;SDS011;18103;52.246;8.052;2023-07-31T01:48:55;1.47;;;1.00;;
31482;SDS011;18103;52.246;8.052;2023-07-31T01:51:22;2.87;;;1.20;;
31482;SDS011;18103;52.246;8.052;2023-07-31T01:53:50;1.63;;;1.20;;
31482;SDS011;18103;52.246;8.052;2023-07-31T01:56:18;3.43;;;1.50;;
31482;SDS011;18103;52.246;8.052;2023-07-31T01:58:44;2.00;;;1.50;;
31482;SDS011;18103;52.246;8.052;2023-07-31T02:01:09;1.80;;;1.10;;
31482;SDS011;18103;52.246;8.052;2023-07-31T02:03:34;1.47;;;1.20;;
31482;SDS011;18103;52.246;8.052;2023-07-31T02:06:02;3.37;;;1.30;;
31482;SDS011;18103;52.246;8.052;2023-07-31T02:08:27;2.70;;;1.40;;
31482;SDS011;18103;52.246;8.052;2023-07-31T02:10:55;3.23;;;1.67;;
31482;SDS011;18103;52.246;8.052;2023-07-31T02:13:21;1.10;;;0.80;;
31482;SDS011;18103;52.246;8.052;2023-07-31T02:15:46;2.97;;;1.27;;
31482;SDS011;18103;52.246;8.052;2023-07-31T02:18:12;2.33;;;0.83;;
31482;SDS011;18103;52.246;8.052;2023-07-31T02:20:42;1.30;;;0.80;;
31482;SDS011;18103;52.246;8.052;2023-07-31T02:23:11;1.10;;;0.73;;
31482;SDS011;18103;52.246;8.052;2023-07-31T02:25:36;2.40;;;1.07;;
31482;SDS011;18103;52.246;8.052;2023-07-31T02:28:02;1.63;;;1.00;;
31482;SDS011;18103;52.246;8.052;2023-07-31T02:30:27;1.33;;;0.93;;
31482;SDS011;18103;52.246;8.052;2023-07-31T02:32:52;0.70;;;0.60;;
31482;SDS011;18103;52.246;8.052;2023-07-31T02:35:20;0.93;;;0.67;;
31482;SDS011;18103;52.246;8.052;2023-07-31T02:37:48;1.07;;;0.57;;
31482;SDS011;18103;52.246;8.052;2023-07-31T02:40:13;1.20;;;0.70;;
31482;SDS011;18103;52.246;8.052;2023-07-31T02:42:39;3.43;;;0.50;;
31482;SDS011;18103;52.246;8.052;2023-07-31T02:45:04;2.70;;;0.70;;
31482;SDS011;18103;52.246;8.052;2023-07-31T02:47:32;0.93;;;0.50;;
31482;SDS011;18103;52.246;8.052;2023-07-31T02:50:00;0.73;;;0.67;;
31482;SDS011;18103;52.246;8.052;2023-07-31T02:52:27;1.40;;;0.57;;
31482;SDS011;18103;52.246;8.052;2023-07-31T02:54:55;0.70;;;0.50;;
31482;SDS011;18103;52.246;8.052;2023-07-31T02:57:23;0.77;;;0.60;;
31482;SDS011;18103;52.246;8.052;2023-07-31T02:59:49;2.07;;;0.33;;
31482;SDS011;18103;52.246;8.052;2023-07-31T03:02:16;2.63;;;0.50;;
31482;SDS011;18103;52.246;8.052;2023-07-31T03:04:44;1.53;;;0.47;;
31482;SDS011;18103;52.246;8.052;2023-07-31T03:07:09;2.50;;;0.50;;
31482;SDS011;18103;52.246;8.052;2023-07-31T03:09:38;2.00;;;0.50;;
31482;SDS011;18103;52.246;8.052;2023-07-31T03:12:03;0.37;;;0.30;;
31482;SDS011;18103;52.246;8.052;2023-07-31T03:14:31;0.60;;;0.40;;
31482;SDS011;18103;52.246;8.052;2023-07-31T03:16:59;0.30;;;0.30;;
31482;SDS011;18103;52.246;8.052;2023-07-31T03:19:26;0.50;;;0.30;;
31482;SDS011;18103;52.246;8.052;2023-07-31T03:21:54;1.90;;;0.40;;
31482;SDS011;18103;52.246;8.052;2023-07-31T03:24:22;0.43;;;0.20;;
31482;SDS011;18103;52.246;8.052;2023-07-31T03:26:55;1.33;;;0.60;;
31482;SDS011;18103;52.246;8.052;2023-07-31T03:29:23;1.57;;;0.40;;
31482;SDS011;18103;52.246;8.052;2023-07-31T03:31:51;1.97;;;0.87;;
31482;SDS011;18103;52.246;8.052;2023-07-31T03:34:21;1.90;;;0.63;;
31482;SDS011;18103;52.246;8.052;2023-07-31T03:36:48;2.27;;;0.90;;
31482;SDS011;18103;52.246;8.052;2023-07-31T03:39:16;1.60;;;1.10;;
31482;SDS011;18103;52.246;8.052;2023-07-31T03:41:44;4.10;;;1.87;;
31482;SDS011;18103;52.246;8.052;2023-07-31T03:44:09;8.87;;;3.20;;
31482;SDS011;18103;52.246;8.052;2023-07-31T03:46:37;7.57;;;3.60;;
31482;SDS011;18103;52.246;8.052;2023-07-31T03:49:04;10.73;;;4.47;;
31482;SDS011;18103;52.246;8.052;2023-07-31T03:51:32;8.00;;;3.50;;
31482;SDS011;18103;52.246;8.052;2023-07-31T03:53:57;9.23;;;4.20;;
31482;SDS011;18103;52.246;8.052;2023-07-31T03:56:23;11.33;;;5.17;;
31482;SDS011;18103;52.246;8.052;2023-07-31T03:58:51;13.27;;;5.90;;
31482;SDS011;18103;52.246;8.052;2023-07-31T04:01:17;17.87;;;5.87;;
31482;SDS011;18103;52.246;8.052;2023-07-31T04:03:45;17.27;;;5.97;;
31482;SDS011;18103;52.246;8.052;2023-07-31T04:06:13;16.33;;;5.57;;
31482;SDS011;18103;52.246;8.052;2023-07-31T04:08:38;12.70;;;5.60;;
31482;SDS011;18103;52.246;8.052;2023-07-31T04:11:06;14.33;;;6.00;;
31482;SDS011;18103;52.246;8.052;2023-07-31T04:13:31;18.03;;;5.93;;
31482;SDS011;18103;52.246;8.052;2023-07-31T04:15:57;17.73;;;6.30;;
31482;SDS011;18103;52.246;8.052;2023-07-31T04:18:24;18.50;;;6.33;;
31482;SDS011;18103;52.246;8.052;2023-07-31T04:20:50;13.93;;;5.17;;
31482;SDS011;18103;52.246;8.052;2023-07-31T04:23:17;19.40;;;5.50;;
31482;SDS011;18103;52.246;8.052;2023-07-31T04:25:43;19.17;;;5.47;;
31482;SDS011;18103;52.246;8.052;2023-07-31T04:28:10;19.10;;;5.27;;
31482;SDS011;18103;52.246;8.052;2023-07-31T04:30:36;12.23;;;4.80;;
31482;SDS011;18103;52.246;8.052;2023-07-31T04:33:01;19.03;;;4.80;;
31482;SDS011;18103;52.246;8.052;2023-07-31T04:35:29;12.20;;;4.83;;
31482;SDS011;18103;52.246;8.052;2023-07-31T04:37:59;10.60;;;4.07;;
31482;SDS011;18103;52.246;8.052;2023-07-31T04:40:29;13.57;;;3.57;;
31482;SDS011;18103;52.246;8.052;2023-07-31T04:42:54;7.43;;;3.93;;
31482;SDS011;18103;52.246;8.052;2023-07-31T04:45:20;11.73;;;4.37;;
31482;SDS011;18103;52.246;8.052;2023-07-31T04:47:48;8.63;;;3.67;;
31482;SDS011;18103;52.246;8.052;2023-07-31T04:50:13;8.30;;;3.67;;
31482;SDS011;18103;52.246;8.052;2023-07-31T04:52:41;9.83;;;3.57;;
31482;SDS011;18103;52.246;8.052;2023-07-31T04:55:08;10.80;;;4.57;;
31482;SDS011;18103;52.246;8.052;2023-07-31T04:57:34;13.23;;;4.27;;
31482;SDS011;18103;52.246;8.052;2023-07-31T04:59:59;7.40;;;3.87;;
31482;SDS011;18103;52.246;8.052;2023-07-31T05:02:24;9.77;;;4.83;;
31482;SDS011;18103;52.246;8.052;2023-07-31T05:04:53;10.73;;;4.77;;
31482;SDS011;18103;52.246;8.052;2023-07-31T05:07:18;12.20;;;4.60;;
31482;SDS011;18103;52.246;8.052;2023-07-31T05:09:43;15.03;;;4.87;;
31482;SDS011;18103;52.246;8.052;2023-07-31T05:12:09;11.27;;;4.90;;
31482;SDS011;18103;52.246;8.052;2023-07-31T05:14:34;19.20;;;5.63;;
31482;SDS011;18103;52.246;8.052;2023-07-31T05:16:59;12.57;;;5.87;;
31482;SDS011;18103;52.246;8.052;2023-07-31T05:19:27;14.23;;;5.43;;
31482;SDS011;18103;52.246;8.052;2023-07-31T05:21:52;14.40;;;5.10;;
31482;SDS011;18103;52.246;8.052;2023-07-31T05:24:20;17.10;;;5.53;;
31482;SDS011;18103;52.246;8.052;2023-07-31T05:26:47;18.67;;;5.17;;
31482;SDS011;18103;52.246;8.052;2023-07-31T05:29:15;16.83;;;5.73;;
31482;SDS011;18103;52.246;8.052;2023-07-31T05:31:41;21.17;;;6.30;;
31482;SDS011;18103;52.246;8.052;2023-07-31T05:34:07;15.03;;;5.47;;
31482;SDS011;18103;52.246;8.052;2023-07-31T05:36:32;20.70;;;5.93;;
31482;SDS011;18103;52.246;8.052;2023-07-31T05:39:00;20.83;;;5.87;;
31482;SDS011;18103;52.246;8.052;2023-07-31T05:41:31;10.97;;;4.07;;
31482;SDS011;18103;52.246;8.052;2023-07-31T05:43:56;20.50;;;5.33;;
31482;SDS011;18103;52.246;8.052;2023-07-31T05:46:25;16.00;;;4.77;;
31482;SDS011;18103;52.246;8.052;2023-07-31T05:48:50;15.03;;;5.73;;
31482;SDS011;18103;52.246;8.052;2023-07-31T05:51:15;18.67;;;5.60;;
31482;SDS011;18103;52.246;8.052;2023-07-31T05:53:43;14.70;;;4.93;;
31482;SDS011;18103;52.246;8.052;2023-07-31T05:56:09;12.43;;;4.90;;
31482;SDS011;18103;52.246;8.052;2023-07-31T05:58:34;26.80;;;5.23;;
31482;SDS011;18103;52.246;8.052;2023-07-31T06:01:02;15.37;;;5.17;;
31482;SDS011;18103;52.246;8.052;2023-07-31T06:03:27;14.27;;;5.03;;
31482;SDS011;18103;52.246;8.052;2023-07-31T06:05:52;13.93;;;4.77;;
31482;SDS011;18103;52.246;8.052;2023-07-31T06:08:20;14.77;;;5.17;;
31482;SDS011;18103;52.246;8.052;2023-07-31T06:10:48;12.10;;;4.33;;
31482;SDS011;18103;52.246;8.052;2023-07-31T06:13:13;15.80;;;4.97;;
31482;SDS011;18103;52.246;8.052;2023-07-31T06:15:41;10.70;;;4.47;;
31482;SDS011;18103;52.246;8.052;2023-07-31T06:18:07;16.93;;;5.20;;
31482;SDS011;18103;52.246;8.052;2023-07-31T06:20:35;17.60;;;4.37;;
31482;SDS011;18103;52.246;8.052;2023-07-31T06:23:01;13.53;;;5.00;;
31482;SDS011;18103;52.246;8.052;2023-07-31T06:25:29;17.20;;;4.43;;
31482;SDS011;18103;52.246;8.052;2023-07-31T06:27:57;11.30;;;4.10;;
31482;SDS011;18103;52.246;8.052;2023-07-31T06:30:25;12.17;;;4.27;;
31482;SDS011;18103;52.246;8.052;2023-07-31T06:32:52;15.30;;;4.30;;
31482;SDS011;18103;52.246;8.052;2023-07-31T06:35:18;17.67;;;5.30;;
31482;SDS011;18103;52.246;8.052;2023-07-31T06:37:43;18.43;;;4.57;;
31482;SDS011;18103;52.246;8.052;2023-07-31T06:40:11;18.87;;;4.73;;
31482;SDS011;18103;52.246;8.052;2023-07-31T06:42:36;15.07;;;4.17;;
31482;SDS011;18103;52.246;8.052;2023-07-31T06:45:04;11.90;;;4.07;;
31482;SDS011;18103;52.246;8.052;2023-07-31T06:47:37;16.27;;;4.93;;
31482;SDS011;18103;52.246;8.052;2023-07-31T06:50:05;19.23;;;4.87;;
31482;SDS011;18103;52.246;8.052;2023-07-31T06:52:33;10.53;;;4.03;;
31482;SDS011;18103;52.246;8.052;2023-07-31T06:55:17;16.67;;;4.13;;
31482;SDS011;18103;52.246;8.052;2023-07-31T06:57:45;12.93;;;4.57;;
31482;SDS011;18103;52.246;8.052;2023-07-31T07:00:11;16.10;;;4.20;;
31482;SDS011;18103;52.246;8.052;2023-07-31T07:02:37;11.10;;;4.13;;
31482;SDS011;18103;52.246;8.052;2023-07-31T07:05:05;19.70;;;5.07;;
31482;SDS011;18103;52.246;8.052;2023-07-31T07:07:32;12.40;;;4.60;;
31482;SDS011;18103;52.246;8.052;2023-07-31T07:09:59;11.60;;;4.47;;
31482;SDS011;18103;52.246;8.052;2023-07-31T07:12:29;19.33;;;4.37;;
31482;SDS011;18103;52.246;8.052;2023-07-31T07:14:55;17.27;;;5.13;;
31482;SDS011;18103;52.246;8.052;2023-07-31T07:17:22;13.63;;;4.13;;
31482;SDS011;18103;52.246;8.052;2023-07-31T07:19:50;15.07;;;4.20;;
31482;SDS011;18103;52.246;8.052;2023-07-31T07:22:17;16.70;;;4.50;;
31482;SDS011;18103;52.246;8.052;2023-07-31T07:24:43;19.20;;;5.63;;
31482;SDS011;18103;52.246;8.052;2023-07-31T07:27:09;12.47;;;4.60;;
31482;SDS011;18103;52.246;8.052;2023-07-31T07:29:35;14.40;;;4.03;;
31482;SDS011;18103;52.246;8.052;2023-07-31T07:32:02;15.33;;;4.40;;
31482;SDS011;18103;52.246;8.052;2023-07-31T07:34:28;10.67;;;3.97;;
31482;SDS011;18103;52.246;8.052;2023-07-31T07:36:54;10.43;;;3.93;;
31482;SDS011;18103;52.246;8.052;2023-07-31T07:39:20;20.40;;;4.30;;
31482;SDS011;18103;52.246;8.052;2023-07-31T07:41:45;13.10;;;3.70;;
31482;SDS011;18103;52.246;8.052;2023-07-31T07:44:11;10.03;;;3.60;;
31482;SDS011;18103;52.246;8.052;2023-07-31T07:46:37;16.83;;;4.07;;
31482;SDS011;18103;52.246;8.052;2023-07-31T07:49:05;14.00;;;3.47;;
31482;SDS011;18103;52.246;8.052;2023-07-31T07:51:30;10.50;;;3.50;;
31482;SDS011;18103;52.246;8.052;2023-07-31T07:53:59;9.97;;;3.03;;
31482;SDS011;18103;52.246;8.052;2023-07-31T07:56:26;9.03;;;3.83;;
31482;SDS011;18103;52.246;8.052;2023-07-31T07:58:56;10.63;;;3.63;;
31482;SDS011;18103;52.246;8.052;2023-07-31T08:01:22;9.30;;;2.93;;
31482;SDS011;18103;52.246;8.052;2023-07-31T08:03:47;7.13;;;3.00;;
31482;SDS011;18103;52.246;8.052;2023-07-31T08:06:15;6.60;;;3.37;;
31482;SDS011;18103;52.246;8.052;2023-07-31T08:08:43;5.23;;;2.60;;
31482;SDS011;18103;52.246;8.052;2023-07-31T08:11:08;7.97;;;3.03;;
31482;SDS011;18103;52.246;8.052;2023-07-31T08:13:33;8.20;;;2.93;;
31482;SDS011;18103;52.246;8.052;2023-07-31T08:15:59;7.20;;;2.70;;
31482;SDS011;18103;52.246;8.052;2023-07-31T08:18:27;5.03;;;3.00;;
31482;SDS011;18103;52.246;8.052;2023-07-31T08:20:52;8.70;;;2.70;;
31482;SDS011;18103;52.246;8.052;2023-07-31T08:23:20;6.43;;;2.70;;
31482;SDS011;18103;52.246;8.052;2023-07-31T08:25:46;8.30;;;2.60;;
31482;SDS011;18103;52.246;8.052;2023-07-31T08:28:15;4.53;;;2.27;;
31482;SDS011;18103;52.246;8.052;2023-07-31T08:30:41;5.50;;;2.50;;
31482;SDS011;18103;52.246;8.052;2023-07-31T08:33:07;6.43;;;2.27;;
31482;SDS011;18103;52.246;8.052;2023-07-31T08:35:32;3.70;;;2.10;;
31482;SDS011;18103;52.246;8.052;2023-07-31T08:37:57;5.27;;;2.07;;
31482;SDS011;18103;52.246;8.052;2023-07-31T08:40:23;2.13;;;1.60;;
31482;SDS011;18103;52.246;8.052;2023-07-31T08:42:49;4.20;;;2.03;;
31482;SDS011;18103;52.246;8.052;2023-07-31T08:45:19;6.43;;;1.93;;
31482;SDS011;18103;52.246;8.052;2023-07-31T08:47:51;3.23;;;2.13;;
31482;SDS011;18103;52.246;8.052;2023-07-31T08:50:19;3.43;;;2.03;;
31482;SDS011;18103;52.246;8.052;2023-07-31T08:52:46;4.57;;;2.60;;
31482;SDS011;18103;52.246;8.052;2023-07-31T08:55:12;3.50;;;2.23;;
31482;SDS011;18103;52.246;8.052;2023-07-31T08:57:40;3.37;;;2.43;;
31482;SDS011;18103;52.246;8.052;2023-07-31T09:00:07;5.33;;;2.40;;
31482;SDS011;18103;52.246;8.052;2023-07-31T09:02:41;3.67;;;2.47;;
31482;SDS011;18103;52.246;8.052;2023-07-31T09:05:15;7.00;;;2.30;;
31482;SDS011;18103;52.246;8.052;2023-07-31T09:07:41;3.63;;;2.13;;
31482;SDS011;18103;52.246;8.052;2023-07-31T09:10:12;3.40;;;1.87;;
31482;SDS011;18103;52.246;8.052;2023-07-31T09:12:39;3.27;;;2.00;;
31482;SDS011;18103;52.246;8.052;2023-07-31T09:15:05;2.93;;;2.17;;
31482;SDS011;18103;52.246;8.052;2023-07-31T09:17:34;7.13;;;2.03;;
31482;SDS011;18103;52.246;8.052;2023-07-31T09:20:16;4.07;;;1.80;;
31482;SDS011;18103;52.246;8.052;2023-07-31T09:22:41;2.70;;;1.97;;
31482;SDS011;18103;52.246;8.052;2023-07-31T09:30:30;2.80;;;1.87;;
31482;SDS011;18103;52.246;8.052;2023-07-31T09:33:05;2.10;;;1.90;;
31482;SDS011;18103;52.246;8.052;2023-07-31T09:35:33;3.27;;;1.90;;
31482;SDS011;18103;52.246;8.052;2023-07-31T09:38:04;3.03;;;1.63;;
31482;SDS011;18103;52.246;8.052;2023-07-31T09:40:40;5.83;;;1.90;;
31482;SDS011;18103;52.246;8.052;2023-07-31T09:43:10;3.50;;;1.87;;
31482;SDS011;18103;52.246;8.052;2023-07-31T09:45:40;1.93;;;1.60;;
31482;SDS011;18103;52.246;8.052;2023-07-31T09:48:07;2.27;;;1.83;;
31482;SDS011;18103;52.246;8.052;2023-07-31T09:50:37;5.20;;;2.10;;
31482;SDS011;18103;52.246;8.052;2023-07-31T09:53:04;2.00;;;1.80;;
31482;SDS011;18103;52.246;8.052;2023-07-31T09:55:34;2.00;;;1.40;;
31482;SDS011;18103;52.246;8.052;2023-07-31T09:58:04;2.73;;;1.90;;
31482;SDS011;18103;52.246;8.052;2023-07-31T10:00:31;2.43;;;1.77;;
31482;SDS011;18103;52.246;8.052;2023-07-31T10:03:01;2.83;;;1.80;;
31482;SDS011;18103;52.246;8.052;2023-07-31T10:05:33;3.43;;;1.80;;
31482;SDS011;18103;52.246;8.052;2023-07-31T10:08:02;4.30;;;2.10;;
31482;SDS011;18103;52.246;8.052;2023-07-31T10:10:28;3.30;;;1.70;;
31482;SDS011;18103;52.246;8.052;2023-07-31T10:12:56;2.80;;;1.90;;
31482;SDS011;18103;52.246;8.052;2023-07-31T10:15:22;4.13;;;2.27;;
31482;SDS011;18103;52.246;8.052;2023-07-31T10:17:51;4.17;;;1.87;;
31482;SDS011;18103;52.246;8.052;2023-07-31T10:20:19;4.87;;;1.90;;
31482;SDS011;18103;52.246;8.052;2023-07-31T10:22:47;3.43;;;2.03;;
31482;SDS011;18103;52.246;8.052;2023-07-31T10:25:16;3.27;;;2.43;;
31482;SDS011;18103;52.246;8.052;2023-07-31T10:27:44;2.30;;;2.03;;
31482;SDS011;18103;52.246;8.052;2023-07-31T10:30:12;4.10;;;2.30;;
31482;SDS011;18103;52.246;8.052;2023-07-31T10:32:41;3.37;;;2.53;;
31482;SDS011;18103;52.246;8.052;2023-07-31T10:35:08;5.23;;;2.90;;
31482;SDS011;18103;52.246;8.052;2023-07-31T10:37:38;3.80;;;2.50;;
31482;SDS011;18103;52.246;8.052;2023-07-31T10:42:54;2.93;;;2.57;;
31482;SDS011;18103;52.246;8.052;2023-07-31T10:48:05;3.37;;;3.07;;
31482;SDS011;18103;52.246;8.052;2023-07-31T10:50:33;2.67;;;2.47;;
31482;SDS011;18103;52.246;8.052;2023-07-31T10:53:04;5.07;;;3.47;;
31482;SDS011;18103;52.246;8.052;2023-07-31T10:55:38;3.10;;;2.77;;
31482;SDS011;18103;52.246;8.052;2023-07-31T10:58:10;3.80;;;2.53;;
31482;SDS011;18103;52.246;8.052;2023-07-31T11:00:42;3.57;;;2.90;;
31482;SDS011;18103;52.246;8.052;2023-07-31T11:03:13;3.87;;;2.60;;
31482;SDS011;18103;52.246;8.052;2023-07-31T11:08:19;3.50;;;2.40;;
31482;SDS011;18103;52.246;8.052;2023-07-31T11:11:10;2.40;;;2.07;;
31482;SDS011;18103;52.246;8.052;2023-07-31T11:16:09;2.67;;;1.93;;
31482;SDS011;18103;52.246;8.052;2023-07-31T11:18:35;2.50;;;2.10;;
31482;SDS011;18103;52.246;8.052;2023-07-31T11:21:02;3.57;;;2.40;;
31482;SDS011;18103;52.246;8.052;2023-07-31T11:23:30;2.47;;;2.10;;
31482;SDS011;18103;52.246;8.052;2023-07-31T11:25:58;2.40;;;2.10;;
31482;SDS011;18103;52.246;8.052;2023-07-31T11:28:25;4.87;;;2.40;;
31482;SDS011;18103;52.246;8.052;2023-07-31T11:30:54;3.27;;;2.53;;
31482;SDS011;18103;52.246;8.052;2023-07-31T11:33:20;2.83;;;2.50;;
31482;SDS011;18103;52.246;8.052;2023-07-31T11:35:49;3.90;;;2.63;;
31482;SDS011;18103;52.246;8.052;2023-07-31T11:38:21;2.90;;;2.20;;
31482;SDS011;18103;52.246;8.052;2023-07-31T11:40:48;3.97;;;2.27;;
31482;SDS011;18103;52.246;8.052;2023-07-31T11:43:17;3.73;;;2.70;;
31482;SDS011;18103;52.246;8.052;2023-07-31T11:45:52;4.23;;;2.40;;
31482;SDS011;18103;52.246;8.052;2023-07-31T11:48:37;6.43;;;2.50;;
31482;SDS011;18103;52.246;8.052;2023-07-31T11:51:06;3.40;;;2.60;;
31482;SDS011;18103;52.246;8.052;2023-07-31T11:53:50;2.37;;;2.17;;
31482;SDS011;18103;52.246;8.052;2023-07-31T11:56:23;4.80;;;2.50;;
31482;SDS011;18103;52.246;8.052;2023-07-31T11:58:55;7.37;;;2.30;;
31482;SDS011;18103;52.246;8.052;2023-07-31T12:01:23;2.17;;;1.80;;
31482;SDS011;18103;52.246;8.052;2023-07-31T12:03:55;2.53;;;2.03;;
31482;SDS011;18103;52.246;8.052;2023-07-31T12:06:21;3.10;;;2.10;;
31482;SDS011;18103;52.246;8.052;2023-07-31T12:08:47;2.73;;;2.00;;
31482;SDS011;18103;52.246;8.052;2023-07-31T12:11:15;3.07;;;1.90;;
31482;SDS011;18103;52.246;8.052;2023-07-31T12:13:43;2.40;;;2.10;;
31482;SDS011;18103;52.246;8.052;2023-07-31T12:16:08;3.10;;;1.83;;
31482;SDS011;18103;52.246;8.052;2023-07-31T12:18:38;2.33;;;2.07;;
31482;SDS011;18103;52.246;8.052;2023-07-31T12:21:04;2.23;;;2.00;;
31482;SDS011;18103;52.246;8.052;2023-07-31T12:23:33;3.27;;;2.03;;
31482;SDS011;18103;52.246;8.052;2023-07-31T12:28:46;2.93;;;1.93;;
31482;SDS011;18103;52.246;8.052;2023-07-31T12:31:15;2.40;;;2.00;;
31482;SDS011;18103;52.246;8.052;2023-07-31T12:33:42;6.50;;;2.50;;
31482;SDS011;18103;52.246;8.052;2023-07-31T12:36:17;3.33;;;2.10;;
31482;SDS011;18103;52.246;8.052;2023-07-31T12:38:52;3.50;;;2.43;;
31482;SDS011;18103;52.246;8.052;2023-07-31T12:41:18;5.27;;;2.03;;
31482;SDS011;18103;52.246;8.052;2023-07-31T12:43:46;6.57;;;2.17;;
31482;SDS011;18103;52.246;8.052;2023-07-31T12:46:11;3.47;;;2.33;;
31482;SDS011;18103;52.246;8.052;2023-07-31T12:48:39;2.57;;;2.23;;
31482;SDS011;18103;52.246;8.052;2023-07-31T12:51:05;5.00;;;2.40;;
31482;SDS011;18103;52.246;8.052;2023-07-31T12:53:34;3.80;;;2.43;;
31482;SDS011;18103;52.246;8.052;2023-07-31T12:56:02;4.10;;;2.27;;
31482;SDS011;18103;52.246;8.052;2023-07-31T12:58:28;4.00;;;2.80;;
31482;SDS011;18103;52.246;8.052;2023-07-31T13:00:55;2.73;;;2.30;;
31482;SDS011;18103;52.246;8.052;2023-07-31T13:03:21;5.17;;;2.97;;
31482;SDS011;18103;52.246;8.052;2023-07-31T13:05:46;4.20;;;2.97;;
31482;SDS011;18103;52.246;8.052;2023-07-31T13:08:14;4.10;;;2.70;;
31482;SDS011;18103;52.246;8.052;2023-07-31T13:10:40;5.77;;;3.13;;
31482;SDS011;18103;52.246;8.052;2023-07-31T13:13:09;5.63;;;3.10;;
31482;SDS011;18103;52.246;8.052;2023-07-31T13:15:34;5.70;;;3.73;;
31482;SDS011;18103;52.246;8.052;2023-07-31T13:18:00;8.10;;;3.47;;
31482;SDS011;18103;52.246;8.052;2023-07-31T13:20:27;5.37;;;3.80;;
31482;SDS011;18103;52.246;8.052;2023-07-31T13:22:55;8.63;;;4.00;;
31482;SDS011;18103;52.246;8.052;2023-07-31T13:25:20;5.93;;;3.90;;
31482;SDS011;18103;52.246;8.052;2023-07-31T13:27:46;7.90;;;4.40;;
31482;SDS011;18103;52.246;8.052;2023-07-31T13:30:11;11.27;;;5.77;;
31482;SDS011;18103;52.246;8.052;2023-07-31T13:32:37;6.93;;;4.77;;
31482;SDS011;18103;52.246;8.052;2023-07-31T13:35:09;8.73;;;4.87;;
31482;SDS011;18103;52.246;8.052;2023-07-31T13:37:37;6.83;;;4.47;;
31482;SDS011;18103;52.246;8.052;2023-07-31T13:40:02;9.93;;;4.23;;
31482;SDS011;18103;52.246;8.052;2023-07-31T13:42:31;6.37;;;4.40;;
31482;SDS011;18103;52.246;8.052;2023-07-31T13:44:56;7.63;;;4.10;;
31482;SDS011;18103;52.246;8.052;2023-07-31T13:47:25;8.33;;;4.27;;
31482;SDS011;18103;52.246;8.052;2023-07-31T13:49:50;5.70;;;4.07;;
31482;SDS011;18103;52.246;8.052;2023-07-31T13:52:16;7.40;;;4.10;;
31482;SDS011;18103;52.246;8.052;2023-07-31T13:54:41;7.03;;;3.80;;
31482;SDS011;18103;52.246;8.052;2023-07-31T13:57:08;6.20;;;3.23;;
31482;SDS011;18103;52.246;8.052;2023-07-31T13:59:33;8.27;;;3.77;;
31482;SDS011;18103;52.246;8.052;2023-07-31T14:01:59;4.50;;;3.33;;
31482;SDS011;18103;52.246;8.052;2023-07-31T14:04:26;4.87;;;3.17;;
31482;SDS011;18103;52.246;8.052;2023-07-31T14:06:52;5.73;;;3.50;;
31482;SDS011;18103;52.246;8.052;2023-07-31T14:09:19;8.17;;;3.60;;
31482;SDS011;18103;52.246;8.052;2023-07-31T14:11:45;5.57;;;3.20;;
31482;SDS011;18103;52.246;8.052;2023-07-31T14:14:10;7.20;;;3.33;;
31482;SDS011;18103;52.246;8.052;2023-07-31T14:16:36;6.00;;;3.30;;
31482;SDS011;18103;52.246;8.052;2023-07-31T14:19:06;9.17;;;3.43;;
31482;SDS011;18103;52.246;8.052;2023-07-31T14:21:33;4.70;;;3.20;;
31482;SDS011;18103;52.246;8.052;2023-07-31T14:23:58;5.50;;;3.30;;
31482;SDS011;18103;52.246;8.052;2023-07-31T14:26:27;6.00;;;3.33;;
31482;SDS011;18103;52.246;8.052;2023-07-31T14:28:52;9.63;;;3.47;;
31482;SDS011;18103;52.246;8.052;2023-07-31T14:31:20;6.27;;;3.20;;
31482;SDS011;18103;52.246;8.052;2023-07-31T14:33:46;3.13;;;2.67;;
31482;SDS011;18103;52.246;8.052;2023-07-31T14:36:11;5.47;;;3.23;;
31482;SDS011;18103;52.246;8.052;2023-07-31T14:38:39;4.23;;;3.30;;
31482;SDS011;18103;52.246;8.052;2023-07-31T14:41:04;6.17;;;3.10;;
31482;SDS011;18103;52.246;8.052;2023-07-31T14:43:29;6.57;;;3.50;;
31482;SDS011;18103;52.246;8.052;2023-07-31T14:45:55;5.20;;;3.30;;
31482;SDS011;18103;52.246;8.052;2023-07-31T14:48:24;3.80;;;2.80;;
31482;SDS011;18103;52.246;8.052;2023-07-31T14:50:54;5.00;;;3.03;;
31482;SDS011;18103;52.246;8.052;2023-07-31T14:53:24;4.17;;;2.70;;
31482;SDS011;18103;52.246;8.052;2023-07-31T14:55:49;4.67;;;3.00;;
31482;SDS011;18103;52.246;8.052;2023-07-31T14:58:15;4.87;;;3.00;;
31482;SDS011;18103;52.246;8.052;2023-07-31T15:00:42;3.00;;;2.63;;
31482;SDS011;18103;52.246;8.052;2023-07-31T15:03:07;8.37;;;3.37;;
31482;SDS011;18103;52.246;8.052;2023-07-31T15:05:32;5.63;;;3.27;;
31482;SDS011;18103;52.246;8.052;2023-07-31T15:08:01;4.03;;;3.47;;
31482;SDS011;18103;52.246;8.052;2023-07-31T15:10:29;9.27;;;3.50;;
31482;SDS011;18103;52.246;8.052;2023-07-31T15:12:56;5.80;;;3.50;;